sensor_id;sensor_type;location;lat;lon;timestamp;pressure;altitude;pressure_sealevel;temperature;humidity
54882;BME280;40775;51.448;4.742;2023-01-31T00:01:39;102495.78;;;4.54;100.00
54882;BME280;40775;51.448;4.742;2023-01-31T00:04:09;102492.38;;;4.55;100.00
54882;BME280;40775;51.448;4.742;2023-01-31T00:06:43;102485.47;;;4.56;100.00
54882;BME280;40775;51.448;4.742;2023-01-31T00:09:13;102483.78;;;4.56;100.00
54882;BME280;40775;51.448;4.742;2023-01-31T00:11:40;102499.38;;;4.56;100.00
54882;BME280;40775;51.448;4.742;2023-01-31T00:14:08;102498.69;;;4.59;100.00
54882;BME280;40775;51.448;4.742;2023-01-31T00:16:36;102494.19;;;4.56;100.00
54882;BME280;40775;51.448;4.742;2023-01-31T00:19:04;102495.97;;;4.57;100.00
54882;BME280;40775;51.448;4.742;2023-01-31T00:21:31;102502.78;;;4.55;100.00
54882;BME280;40775;51.448;4.742;2023-01-31T00:23:59;102493.75;;;4.50;100.00
54882;BME280;40775;51.448;4.742;2023-01-31T00:26:31;102487.22;;;4.44;100.00
54882;BME280;40775;51.448;4.742;2023-01-31T00:29:01;102499.53;;;4.46;100.00
54882;BME280;40775;51.448;4.742;2023-01-31T00:31:31;102496.50;;;4.40;100.00
54882;BME280;40775;51.448;4.742;2023-01-31T00:33:58;102493.78;;;4.39;100.00
54882;BME280;40775;51.448;4.742;2023-01-31T00:36:33;102494.91;;;4.42;100.00
54882;BME280;40775;51.448;4.742;2023-01-31T00:39:03;102491.53;;;4.43;100.00
54882;BME280;40775;51.448;4.742;2023-01-31T00:41:31;102489.94;;;4.45;100.00
54882;BME280;40775;51.448;4.742;2023-01-31T00:43:58;102479.84;;;4.38;100.00
54882;BME280;40775;51.448;4.742;2023-01-31T00:46:27;102483.63;;;4.30;100.00
54882;BME280;40775;51.448;4.742;2023-01-31T00:48:55;102474.22;;;4.32;100.00
54882;BME280;40775;51.448;4.742;2023-01-31T00:51:24;102481.81;;;4.29;100.00
54882;BME280;40775;51.448;4.742;2023-01-31T00:53:53;102473.31;;;4.31;100.00
54882;BME280;40775;51.448;4.742;2023-01-31T00:56:23;102474.13;;;4.30;100.00
54882;BME280;40775;51.448;4.742;2023-01-31T00:58:50;102475.81;;;4.30;100.00
54882;BME280;40775;51.448;4.742;2023-01-31T01:01:25;102469.59;;;4.28;100.00
54882;BME280;40775;51.448;4.742;2023-01-31T01:03:54;102470.50;;;4.28;100.00
54882;BME280;40775;51.448;4.742;2023-01-31T01:06:22;102465.78;;;4.23;100.00
54882;BME280;40775;51.448;4.742;2023-01-31T01:08:49;102478.19;;;4.27;100.00
54882;BME280;40775;51.448;4.742;2023-01-31T01:11:24;102479.69;;;4.23;100.00
54882;BME280;40775;51.448;4.742;2023-01-31T01:13:51;102465.78;;;4.23;100.00
54882;BME280;40775;51.448;4.742;2023-01-31T01:16:33;102448.81;;;4.28;100.00
54882;BME280;40775;51.448;4.742;2023-01-31T01:19:11;102457.41;;;4.27;100.00
54882;BME280;40775;51.448;4.742;2023-01-31T01:21:38;102461.91;;;4.29;100.00
54882;BME280;40775;51.448;4.742;2023-01-31T01:24:12;102449.13;;;4.32;100.00
54882;BME280;40775;51.448;4.742;2023-01-31T01:26:40;102449.13;;;4.32;100.00
54882;BME280;40775;51.448;4.742;2023-01-31T01:29:07;102460.00;;;4.27;100.00
54882;BME280;40775;51.448;4.742;2023-01-31T01:31:37;102460.47;;;4.21;100.00
54882;BME280;40775;51.448;4.742;2023-01-31T01:34:12;102467.25;;;4.19;100.00
54882;BME280;40775;51.448;4.742;2023-01-31T01:36:39;102458.09;;;4.24;100.00
54882;BME280;40775;51.448;4.742;2023-01-31T01:39:09;102457.66;;;4.18;100.00
54882;BME280;40775;51.448;4.742;2023-01-31T01:41:38;102444.09;;;4.22;100.00
54882;BME280;40775;51.448;4.742;2023-01-31T01:44:50;102439.53;;;4.31;100.00
54882;BME280;40775;51.448;4.742;2023-01-31T01:47:48;102435.22;;;4.32;100.00
54882;BME280;40775;51.448;4.742;2023-01-31T01:50:29;102431.19;;;4.24;100.00
54882;BME280;40775;51.448;4.742;2023-01-31T01:53:13;102430.97;;;4.21;100.00
54882;BME280;40775;51.448;4.742;2023-01-31T01:55:50;102433.59;;;4.21;100.00
54882;BME280;40775;51.448;4.742;2023-01-31T02:00:55;102439.34;;;4.17;100.00
54882;BME280;40775;51.448;4.742;2023-01-31T02:03:22;102433.69;;;4.22;100.00
54882;BME280;40775;51.448;4.742;2023-01-31T02:05:56;102439.41;;;4.30;100.00
54882;BME280;40775;51.448;4.742;2023-01-31T02:08:27;102439.31;;;4.28;100.00
54882;BME280;40775;51.448;4.742;2023-01-31T02:13:34;102441.13;;;4.29;100.00
54882;BME280;40775;51.448;4.742;2023-01-31T02:16:01;102433.09;;;4.26;100.00
54882;BME280;40775;51.448;4.742;2023-01-31T02:18:28;102434.22;;;4.30;100.00
54882;BME280;40775;51.448;4.742;2023-01-31T02:38:54;102433.91;;;4.25;100.00
54882;BME280;40775;51.448;4.742;2023-01-31T02:41:45;102436.59;;;4.27;100.00
54882;BME280;40775;51.448;4.742;2023-01-31T02:44:48;102432.09;;;4.24;100.00
54882;BME280;40775;51.448;4.742;2023-01-31T02:47:56;102435.16;;;4.19;100.00
54882;BME280;40775;51.448;4.742;2023-01-31T02:50:48;102422.75;;;4.15;100.00
54882;BME280;40775;51.448;4.742;2023-01-31T02:56:14;102426.94;;;4.13;100.00
54882;BME280;40775;51.448;4.742;2023-01-31T02:59:01;102431.09;;;4.11;100.00
54882;BME280;40775;51.448;4.742;2023-01-31T03:01:43;102431.25;;;4.12;100.00
54882;BME280;40775;51.448;4.742;2023-01-31T03:04:13;102432.13;;;4.13;100.00
54882;BME280;40775;51.448;4.742;2023-01-31T03:07:04;102432.56;;;4.19;100.00
54882;BME280;40775;51.448;4.742;2023-01-31T03:10:18;102436.41;;;4.24;100.00
54882;BME280;40775;51.448;4.742;2023-01-31T03:13:17;102445.53;;;4.30;100.00
54882;BME280;40775;51.448;4.742;2023-01-31T03:16:15;102441.81;;;4.27;100.00
54882;BME280;40775;51.448;4.742;2023-01-31T03:19:11;102444.16;;;4.35;100.00
54882;BME280;40775;51.448;4.742;2023-01-31T03:21:50;102447.53;;;4.34;100.00
54882;BME280;40775;51.448;4.742;2023-01-31T03:24:19;102437.72;;;4.30;100.00
54882;BME280;40775;51.448;4.742;2023-01-31T03:26:48;102434.34;;;4.31;100.00
54882;BME280;40775;51.448;4.742;2023-01-31T03:29:15;102432.53;;;4.30;100.00
54882;BME280;40775;51.448;4.742;2023-01-31T03:31:53;102439.63;;;4.33;100.00
54882;BME280;40775;51.448;4.742;2023-01-31T03:34:24;102433.00;;;4.25;100.00
54882;BME280;40775;51.448;4.742;2023-01-31T03:37:15;102433.44;;;4.31;100.00
54882;BME280;40775;51.448;4.742;2023-01-31T03:43:05;102424.09;;;4.21;100.00
54882;BME280;40775;51.448;4.742;2023-01-31T03:45:56;102424.50;;;4.27;100.00
54882;BME280;40775;51.448;4.742;2023-01-31T03:48:34;102424.97;;;4.22;100.00
54882;BME280;40775;51.448;4.742;2023-01-31T03:51:07;102422.97;;;4.18;100.00
54882;BME280;40775;51.448;4.742;2023-01-31T03:54:04;102421.75;;;4.13;100.00
54882;BME280;40775;51.448;4.742;2023-01-31T03:56:47;102422.88;;;4.16;100.00
54882;BME280;40775;51.448;4.742;2023-01-31T03:59:22;102416.19;;;4.20;100.00
54882;BME280;40775;51.448;4.742;2023-01-31T04:01:54;102409.75;;;4.15;100.00
54882;BME280;40775;51.448;4.742;2023-01-31T04:04:35;102412.78;;;4.21;100.00
54882;BME280;40775;51.448;4.742;2023-01-31T04:07:04;102401.50;;;4.09;100.00
54882;BME280;40775;51.448;4.742;2023-01-31T04:09:33;102390.78;;;4.16;100.00
54882;BME280;40775;51.448;4.742;2023-01-31T04:12:01;102397.19;;;4.21;100.00
54882;BME280;40775;51.448;4.742;2023-01-31T04:14:28;102402.72;;;4.25;100.00
54882;BME280;40775;51.448;4.742;2023-01-31T04:16:56;102411.94;;;4.33;100.00
54882;BME280;40775;51.448;4.742;2023-01-31T04:19:23;102402.91;;;4.28;100.00
54882;BME280;40775;51.448;4.742;2023-01-31T04:21:49;102400.44;;;4.30;100.00
54882;BME280;40775;51.448;4.742;2023-01-31T04:24:16;102393.63;;;4.32;100.00
54882;BME280;40775;51.448;4.742;2023-01-31T04:26:43;102403.56;;;4.38;100.00
54882;BME280;40775;51.448;4.742;2023-01-31T04:29:11;102402.78;;;4.39;100.00
54882;BME280;40775;51.448;4.742;2023-01-31T04:31:38;102402.44;;;4.34;100.00
54882;BME280;40775;51.448;4.742;2023-01-31T04:34:07;102400.84;;;4.36;100.00
54882;BME280;40775;51.448;4.742;2023-01-31T04:36:34;102396.66;;;4.38;100.00
54882;BME280;40775;51.448;4.742;2023-01-31T04:39:01;102395.09;;;4.40;100.00
54882;BME280;40775;51.448;4.742;2023-01-31T04:41:28;102389.56;;;4.35;100.00
54882;BME280;40775;51.448;4.742;2023-01-31T04:43:55;102384.03;;;4.31;100.00
54882;BME280;40775;51.448;4.742;2023-01-31T04:46:22;102381.44;;;4.31;100.00
54882;BME280;40775;51.448;4.742;2023-01-31T04:48:49;102387.84;;;4.36;100.00
54882;BME280;40775;51.448;4.742;2023-01-31T04:51:16;102378.47;;;4.38;100.00
54882;BME280;40775;51.448;4.742;2023-01-31T04:53:43;102377.81;;;4.41;100.00
54882;BME280;40775;51.448;4.742;2023-01-31T04:56:11;102371.22;;;4.46;100.00
54882;BME280;40775;51.448;4.742;2023-01-31T04:58:38;102366.91;;;4.46;100.00
54882;BME280;40775;51.448;4.742;2023-01-31T05:01:07;102362.72;;;4.48;100.00
54882;BME280;40775;51.448;4.742;2023-01-31T05:03:34;102359.44;;;4.51;100.00
54882;BME280;40775;51.448;4.742;2023-01-31T05:06:02;102368.22;;;4.53;100.00
54882;BME280;40775;51.448;4.742;2023-01-31T05:08:29;102359.94;;;4.58;100.00
54882;BME280;40775;51.448;4.742;2023-01-31T05:10:59;102358.84;;;4.55;100.00
54882;BME280;40775;51.448;4.742;2023-01-31T05:13:30;102358.34;;;4.60;100.00
54882;BME280;40775;51.448;4.742;2023-01-31T05:15:58;102353.59;;;4.67;100.00
54882;BME280;40775;51.448;4.742;2023-01-31T05:18:26;102354.34;;;4.65;100.00
54882;BME280;40775;51.448;4.742;2023-01-31T05:20:53;102356.97;;;4.65;100.00
54882;BME280;40775;51.448;4.742;2023-01-31T05:23:20;102359.78;;;4.69;100.00
54882;BME280;40775;51.448;4.742;2023-01-31T05:25:49;102360.00;;;4.72;100.00
54882;BME280;40775;51.448;4.742;2023-01-31T05:28:16;102356.59;;;4.73;100.00
54882;BME280;40775;51.448;4.742;2023-01-31T05:30:47;102356.00;;;4.77;100.00
54882;BME280;40775;51.448;4.742;2023-01-31T05:33:14;102348.41;;;4.80;100.00
54882;BME280;40775;51.448;4.742;2023-01-31T05:35:41;102347.50;;;4.79;100.00
54882;BME280;40775;51.448;4.742;2023-01-31T05:38:08;102342.78;;;4.74;100.00
54882;BME280;40775;51.448;4.742;2023-01-31T05:40:35;102336.69;;;4.86;100.00
54882;BME280;40775;51.448;4.742;2023-01-31T05:43:03;102347.00;;;4.85;100.00
54882;BME280;40775;51.448;4.742;2023-01-31T05:45:30;102339.00;;;4.82;100.00
54882;BME280;40775;51.448;4.742;2023-01-31T05:47:58;102338.00;;;4.80;100.00
54882;BME280;40775;51.448;4.742;2023-01-31T05:50:25;102334.50;;;4.79;100.00
54882;BME280;40775;51.448;4.742;2023-01-31T05:52:56;102334.59;;;4.81;100.00
54882;BME280;40775;51.448;4.742;2023-01-31T05:55:29;102332.09;;;4.82;100.00
54882;BME280;40775;51.448;4.742;2023-01-31T05:57:57;102330.09;;;4.78;100.00
54882;BME280;40775;51.448;4.742;2023-01-31T06:00:27;102323.19;;;4.79;100.00
54882;BME280;40775;51.448;4.742;2023-01-31T06:02:58;102327.78;;;4.83;100.00
54882;BME280;40775;51.448;4.742;2023-01-31T06:05:26;102326.78;;;4.81;100.00
54882;BME280;40775;51.448;4.742;2023-01-31T06:07:53;102320.59;;;4.79;100.00
54882;BME280;40775;51.448;4.742;2023-01-31T06:10:21;102322.59;;;4.83;100.00
54882;BME280;40775;51.448;4.742;2023-01-31T06:12:48;102319.50;;;4.88;100.00
54882;BME280;40775;51.448;4.742;2023-01-31T06:15:15;102314.09;;;4.85;100.00
54882;BME280;40775;51.448;4.742;2023-01-31T06:17:43;102309.38;;;4.93;100.00
54882;BME280;40775;51.448;4.742;2023-01-31T06:20:10;102317.19;;;4.93;100.00
54882;BME280;40775;51.448;4.742;2023-01-31T06:22:37;102321.63;;;4.94;100.00
54882;BME280;40775;51.448;4.742;2023-01-31T06:25:05;102316.41;;;4.94;100.00
54882;BME280;40775;51.448;4.742;2023-01-31T06:27:33;102315.81;;;4.98;100.00
54882;BME280;40775;51.448;4.742;2023-01-31T06:30:00;102319.44;;;5.00;100.00
54882;BME280;40775;51.448;4.742;2023-01-31T06:32:27;102316.72;;;4.99;100.00
54882;BME280;40775;51.448;4.742;2023-01-31T06:34:54;102310.63;;;4.98;100.00
54882;BME280;40775;51.448;4.742;2023-01-31T06:37:21;102310.72;;;5.00;100.00
54882;BME280;40775;51.448;4.742;2023-01-31T06:39:48;102308.00;;;4.98;100.00
54882;BME280;40775;51.448;4.742;2023-01-31T06:42:15;102303.09;;;5.03;100.00
54882;BME280;40775;51.448;4.742;2023-01-31T06:44:42;102313.41;;;5.01;100.00
54882;BME280;40775;51.448;4.742;2023-01-31T06:47:10;102311.09;;;7.15;100.00
54882;BME280;40775;51.448;4.742;2023-01-31T06:49:38;102312.72;;;8.54;100.00
54882;BME280;40775;51.448;4.742;2023-01-31T06:52:06;102284.75;;;9.41;100.00
54882;BME280;40775;51.448;4.742;2023-01-31T06:54:33;102266.16;;;9.91;100.00
54882;BME280;40775;51.448;4.742;2023-01-31T06:57:00;102265.00;;;10.23;100.00
54882;BME280;40775;51.448;4.742;2023-01-31T06:59:27;102269.53;;;10.46;100.00
54882;BME280;40775;51.448;4.742;2023-01-31T07:01:54;102265.06;;;10.65;100.00
54882;BME280;40775;51.448;4.742;2023-01-31T07:04:21;102263.03;;;10.78;100.00
54882;BME280;40775;51.448;4.742;2023-01-31T07:06:48;102259.94;;;10.89;100.00
54882;BME280;40775;51.448;4.742;2023-01-31T07:09:15;102263.88;;;10.98;100.00
54882;BME280;40775;51.448;4.742;2023-01-31T07:11:42;102265.13;;;11.08;100.00
54882;BME280;40775;51.448;4.742;2023-01-31T07:14:09;102270.50;;;11.11;100.00
54882;BME280;40775;51.448;4.742;2023-01-31T07:16:36;102261.06;;;11.16;100.00
54882;BME280;40775;51.448;4.742;2023-01-31T07:19:04;102259.59;;;11.23;100.00
54882;BME280;40775;51.448;4.742;2023-01-31T07:21:31;102267.69;;;11.27;100.00
54882;BME280;40775;51.448;4.742;2023-01-31T07:23:59;102260.94;;;11.34;100.00
54882;BME280;40775;51.448;4.742;2023-01-31T07:26:26;102258.38;;;11.35;100.00
54882;BME280;40775;51.448;4.742;2023-01-31T07:28:53;102248.91;;;11.40;100.00
54882;BME280;40775;51.448;4.742;2023-01-31T07:31:20;102256.03;;;11.43;100.00
54882;BME280;40775;51.448;4.742;2023-01-31T07:33:47;102257.03;;;11.46;100.00
54882;BME280;40775;51.448;4.742;2023-01-31T07:36:15;102252.78;;;11.50;100.00
54882;BME280;40775;51.448;4.742;2023-01-31T07:38:45;102246.00;;;11.55;100.00
54882;BME280;40775;51.448;4.742;2023-01-31T07:41:12;102252.28;;;11.59;100.00
54882;BME280;40775;51.448;4.742;2023-01-31T07:43:39;102252.28;;;11.59;100.00
54882;BME280;40775;51.448;4.742;2023-01-31T07:46:07;102245.34;;;11.61;100.00
54882;BME280;40775;51.448;4.742;2023-01-31T07:48:36;102242.75;;;11.62;100.00
54882;BME280;40775;51.448;4.742;2023-01-31T07:51:04;102242.94;;;11.67;100.00
54882;BME280;40775;51.448;4.742;2023-01-31T07:53:35;102243.03;;;11.70;100.00
54882;BME280;40775;51.448;4.742;2023-01-31T07:56:18;102228.09;;;11.69;100.00
54882;BME280;40775;51.448;4.742;2023-01-31T07:58:48;102228.16;;;11.70;100.00
54882;BME280;40775;51.448;4.742;2023-01-31T08:01:21;102222.13;;;11.73;100.00
54882;BME280;40775;51.448;4.742;2023-01-31T08:04:10;102221.22;;;11.72;100.00
54882;BME280;40775;51.448;4.742;2023-01-31T08:06:49;102227.47;;;11.76;100.00
54882;BME280;40775;51.448;4.742;2023-01-31T08:09:19;102209.97;;;11.76;100.00
54882;BME280;40775;51.448;4.742;2023-01-31T08:11:47;102216.25;;;11.79;100.00
54882;BME280;40775;51.448;4.742;2023-01-31T08:14:14;102202.31;;;11.81;100.00
54882;BME280;40775;51.448;4.742;2023-01-31T08:16:41;102211.19;;;11.85;100.00
54882;BME280;40775;51.448;4.742;2023-01-31T08:19:09;102208.56;;;11.85;100.00
54882;BME280;40775;51.448;4.742;2023-01-31T08:21:36;102194.56;;;11.86;100.00
54882;BME280;40775;51.448;4.742;2023-01-31T08:24:03;102193.69;;;11.85;100.00
54882;BME280;40775;51.448;4.742;2023-01-31T08:26:30;102198.03;;;11.85;100.00
54882;BME280;40775;51.448;4.742;2023-01-31T08:28:57;102191.78;;;11.81;100.00
54882;BME280;40775;51.448;4.742;2023-01-31T08:31:27;102177.00;;;11.85;100.00
54882;BME280;40775;51.448;4.742;2023-01-31T08:33:55;102169.84;;;11.81;100.00
54882;BME280;40775;51.448;4.742;2023-01-31T08:36:26;102171.69;;;11.83;100.00
54882;BME280;40775;51.448;4.742;2023-01-31T08:38:55;102165.38;;;11.78;100.00
54882;BME280;40775;51.448;4.742;2023-01-31T08:41:24;102172.28;;;11.77;100.00
54882;BME280;40775;51.448;4.742;2023-01-31T08:43:52;102164.53;;;11.79;100.00
54882;BME280;40775;51.448;4.742;2023-01-31T08:46:30;102158.41;;;11.80;100.00
54882;BME280;40775;51.448;4.742;2023-01-31T08:48:59;102153.88;;;11.77;100.00
54882;BME280;40775;51.448;4.742;2023-01-31T08:51:26;102154.94;;;11.81;100.00
54882;BME280;40775;51.448;4.742;2023-01-31T08:53:54;102157.53;;;11.80;100.00
54882;BME280;40775;51.448;4.742;2023-01-31T08:56:21;102164.56;;;11.81;100.00
54882;BME280;40775;51.448;4.742;2023-01-31T08:58:52;102164.63;;;11.82;100.00
54882;BME280;40775;51.448;4.742;2023-01-31T09:01:21;102159.41;;;11.84;100.00
54882;BME280;40775;51.448;4.742;2023-01-31T09:03:49;102158.47;;;11.82;100.00
54882;BME280;40775;51.448;4.742;2023-01-31T09:06:23;102159.31;;;11.81;100.00
54882;BME280;40775;51.448;4.742;2023-01-31T09:08:55;102158.47;;;11.82;100.00
54882;BME280;40775;51.448;4.742;2023-01-31T09:11:23;102158.47;;;11.82;100.00
54882;BME280;40775;51.448;4.742;2023-01-31T09:13:52;102163.91;;;11.86;100.00
54882;BME280;40775;51.448;4.742;2023-01-31T09:16:19;102168.31;;;11.87;100.00
54882;BME280;40775;51.448;4.742;2023-01-31T09:18:47;102160.41;;;11.87;100.00
54882;BME280;40775;51.448;4.742;2023-01-31T09:21:17;102155.16;;;11.87;100.00
54882;BME280;40775;51.448;4.742;2023-01-31T09:23:46;102154.22;;;11.85;100.00
54882;BME280;40775;51.448;4.742;2023-01-31T09:26:15;102155.88;;;11.83;100.00
54882;BME280;40775;51.448;4.742;2023-01-31T09:28:42;102159.41;;;11.84;100.00
54882;BME280;40775;51.448;4.742;2023-01-31T09:31:12;102141.06;;;11.85;100.00
54882;BME280;40775;51.448;4.742;2023-01-31T09:33:40;102151.69;;;11.88;100.00
54882;BME280;40775;51.448;4.742;2023-01-31T09:36:11;102145.63;;;11.91;100.00
54882;BME280;40775;51.448;4.742;2023-01-31T09:38:38;102142.94;;;11.89;100.00
54882;BME280;40775;51.448;4.742;2023-01-31T09:44:36;102149.94;;;11.89;100.00
54882;BME280;40775;51.448;4.742;2023-01-31T09:47:33;102154.38;;;11.90;100.00
54882;BME280;40775;51.448;4.742;2023-01-31T09:50:24;102155.88;;;11.83;100.00
54882;BME280;40775;51.448;4.742;2023-01-31T09:52:53;102166.47;;;11.85;100.00
54882;BME280;40775;51.448;4.742;2023-01-31T10:05:02;102154.16;;;11.84;100.00
54882;BME280;40775;51.448;4.742;2023-01-31T10:07:42;102151.53;;;11.84;100.00
54882;BME280;40775;51.448;4.742;2023-01-31T10:10:36;102150.78;;;11.88;100.00
54882;BME280;40775;51.448;4.742;2023-01-31T10:13:18;102146.41;;;11.88;100.00
54882;BME280;40775;51.448;4.742;2023-01-31T10:16:29;102119.91;;;11.82;100.00
54882;BME280;40775;51.448;4.742;2023-01-31T10:18:53;102107.59;;;11.81;100.00
54882;BME280;40775;51.448;4.742;2023-01-31T10:21:45;102126.00;;;11.81;100.00
54882;BME280;40775;51.448;4.742;2023-01-31T10:24:24;102112.75;;;11.78;100.00
54882;BME280;40775;51.448;4.742;2023-01-31T10:27:11;102103.16;;;11.80;100.00
54882;BME280;40775;51.448;4.742;2023-01-31T10:29:52;102109.25;;;11.79;100.00
54882;BME280;40775;51.448;4.742;2023-01-31T10:32:33;102124.81;;;11.74;100.00
54882;BME280;40775;51.448;4.742;2023-01-31T10:35:34;102129.03;;;11.69;100.00
54882;BME280;40775;51.448;4.742;2023-01-31T10:38:27;102128.63;;;11.81;100.00
54882;BME280;40775;51.448;4.742;2023-01-31T10:41:11;102132.41;;;11.89;100.00
54882;BME280;40775;51.448;4.742;2023-01-31T10:43:50;102119.38;;;11.92;100.00
54882;BME280;40775;51.448;4.742;2023-01-31T10:46:20;102112.22;;;11.88;100.00
54882;BME280;40775;51.448;4.742;2023-01-31T10:48:47;102119.91;;;11.82;100.00
54882;BME280;40775;51.448;4.742;2023-01-31T10:51:52;102117.72;;;11.72;100.00
54882;BME280;40775;51.448;4.742;2023-01-31T10:54:57;102123.34;;;11.57;100.00
54882;BME280;40775;51.448;4.742;2023-01-31T10:57:28;102125.41;;;11.66;100.00
54882;BME280;40775;51.448;4.742;2023-01-31T10:59:56;102120.88;;;11.62;100.00
54882;BME280;40775;51.448;4.742;2023-01-31T11:02:25;102118.91;;;11.56;100.00
54882;BME280;40775;51.448;4.742;2023-01-31T11:04:57;102120.09;;;11.64;100.00
54882;BME280;40775;51.448;4.742;2023-01-31T11:07:29;102100.09;;;11.69;100.00
54882;BME280;40775;51.448;4.742;2023-01-31T11:09:57;102091.81;;;11.59;100.00
54882;BME280;40775;51.448;4.742;2023-01-31T11:15:24;102102.97;;;11.52;100.00
54882;BME280;40775;51.448;4.742;2023-01-31T11:17:52;102079.56;;;11.59;100.00
54882;BME280;40775;51.448;4.742;2023-01-31T11:20:31;102083.25;;;11.64;100.00
54882;BME280;40775;51.448;4.742;2023-01-31T11:23:00;102083.25;;;11.40;100.00
54882;BME280;40775;51.448;4.742;2023-01-31T11:25:30;102079.88;;;11.21;100.00
54882;BME280;40775;51.448;4.742;2023-01-31T11:28:04;102077.94;;;11.15;100.00
54882;BME280;40775;51.448;4.742;2023-01-31T11:30:49;102074.31;;;11.35;100.00
54882;BME280;40775;51.448;4.742;2023-01-31T11:34:23;102071.13;;;11.44;100.00
54882;BME280;40775;51.448;4.742;2023-01-31T11:36:40;102069.81;;;11.09;100.00
54882;BME280;40775;51.448;4.742;2023-01-31T11:39:34;102066.34;;;11.10;100.00
54882;BME280;40775;51.448;4.742;2023-01-31T11:42:15;102065.84;;;11.20;100.00
54882;BME280;40775;51.448;4.742;2023-01-31T11:47:41;102075.63;;;11.00;100.00
54882;BME280;40775;51.448;4.742;2023-01-31T11:50:42;102059.91;;;11.24;100.00
54882;BME280;40775;51.448;4.742;2023-01-31T11:53:38;102054.88;;;11.08;100.00
54882;BME280;40775;51.448;4.742;2023-01-31T11:56:15;102067.47;;;10.70;100.00
54882;BME280;40775;51.448;4.742;2023-01-31T11:58:45;102074.75;;;11.00;100.00
54882;BME280;40775;51.448;4.742;2023-01-31T12:01:19;102082.19;;;10.89;100.00
54882;BME280;40775;51.448;4.742;2023-01-31T12:03:59;102085.63;;;10.43;100.00
54882;BME280;40775;51.448;4.742;2023-01-31T12:06:39;102094.47;;;10.45;100.00
54882;BME280;40775;51.448;4.742;2023-01-31T12:09:23;102099.72;;;10.25;100.00
54882;BME280;40775;51.448;4.742;2023-01-31T12:12:00;102087.72;;;10.52;100.00
54882;BME280;40775;51.448;4.742;2023-01-31T12:14:39;102104.84;;;10.42;100.00
54882;BME280;40775;51.448;4.742;2023-01-31T12:17:14;102105.91;;;10.47;100.00
54882;BME280;40775;51.448;4.742;2023-01-31T12:32:03;102096.84;;;10.62;100.00
54882;BME280;40775;51.448;4.742;2023-01-31T12:49:49;102078.84;;;11.39;100.00
54882;BME280;40775;51.448;4.742;2023-01-31T12:55:34;102067.38;;;11.37;100.00
54882;BME280;40775;51.448;4.742;2023-01-31T12:58:33;102067.94;;;11.29;100.00
54882;BME280;40775;51.448;4.742;2023-01-31T13:07:07;102060.84;;;11.26;100.00
54882;BME280;40775;51.448;4.742;2023-01-31T13:09:36;102054.00;;;11.31;100.00
54882;BME280;40775;51.448;4.742;2023-01-31T13:12:15;102049.34;;;11.48;100.00
54882;BME280;40775;51.448;4.742;2023-01-31T13:15:09;102056.53;;;11.52;100.00
54882;BME280;40775;51.448;4.742;2023-01-31T13:17:41;102041.03;;;11.36;100.00
54882;BME280;40775;51.448;4.742;2023-01-31T13:20:24;102046.97;;;11.54;100.00
54882;BME280;40775;51.448;4.742;2023-01-31T13:23:03;102044.38;;;11.56;100.00
54882;BME280;40775;51.448;4.742;2023-01-31T13:25:50;102057.44;;;11.53;100.00
54882;BME280;40775;51.448;4.742;2023-01-31T13:28:27;102057.69;;;11.36;100.00
54882;BME280;40775;51.448;4.742;2023-01-31T13:31:04;102060.91;;;11.28;100.00
54882;BME280;40775;51.448;4.742;2023-01-31T13:33:50;102061.66;;;11.49;100.00
54882;BME280;40775;51.448;4.742;2023-01-31T13:36:46;102053.59;;;11.68;100.00
54882;BME280;40775;51.448;4.742;2023-01-31T13:39:32;102048.25;;;11.41;100.00
54882;BME280;40775;51.448;4.742;2023-01-31T13:42:02;102045.13;;;11.28;100.00
54882;BME280;40775;51.448;4.742;2023-01-31T13:44:30;102042.66;;;11.32;100.00
54882;BME280;40775;51.448;4.742;2023-01-31T13:50:33;102032.03;;;11.29;100.00
54882;BME280;40775;51.448;4.742;2023-01-31T13:53:06;102043.97;;;11.21;100.00
54882;BME280;40775;51.448;4.742;2023-01-31T13:55:42;102049.69;;;11.33;100.00
54882;BME280;40775;51.448;4.742;2023-01-31T13:58:33;102046.66;;;11.23;100.00
54882;BME280;40775;51.448;4.742;2023-01-31T14:01:20;102055.13;;;11.38;100.00
54882;BME280;40775;51.448;4.742;2023-01-31T14:09:31;102062.03;;;11.12;100.00
54882;BME280;40775;51.448;4.742;2023-01-31T14:14:51;102061.16;;;11.35;100.00
54882;BME280;40775;51.448;4.742;2023-01-31T14:22:27;102069.50;;;11.48;100.00
54882;BME280;40775;51.448;4.742;2023-01-31T14:30:18;102090.59;;;11.25;100.00
54882;BME280;40775;51.448;4.742;2023-01-31T14:39:26;102092.63;;;11.10;100.00
54882;BME280;40775;51.448;4.742;2023-01-31T14:45:01;102110.13;;;10.87;100.00
54882;BME280;40775;51.448;4.742;2023-01-31T14:48:05;102113.13;;;10.96;100.00
54882;BME280;40775;51.448;4.742;2023-01-31T14:51:07;102114.09;;;11.22;100.00
54882;BME280;40775;51.448;4.742;2023-01-31T14:54:20;102122.25;;;11.28;100.00
54882;BME280;40775;51.448;4.742;2023-01-31T15:00:05;102114.38;;;11.52;100.00
54882;BME280;40775;51.448;4.742;2023-01-31T15:03:06;102127.97;;;11.18;100.00
54882;BME280;40775;51.448;4.742;2023-01-31T15:05:51;102118.28;;;11.39;100.00
54882;BME280;40775;51.448;4.742;2023-01-31T15:13:56;102115.66;;;11.39;100.00
54882;BME280;40775;51.448;4.742;2023-01-31T15:16:34;102119.03;;;11.13;100.00
54882;BME280;40775;51.448;4.742;2023-01-31T15:19:17;102130.69;;;10.97;100.00
54882;BME280;40775;51.448;4.742;2023-01-31T15:22:07;102123.25;;;11.32;100.00
54882;BME280;40775;51.448;4.742;2023-01-31T15:24:39;102133.91;;;11.12;100.00
54882;BME280;40775;51.448;4.742;2023-01-31T15:27:21;102134.69;;;11.10;100.00